APL Norway — A8NC4 — position and weather

sailwx.info

Track history (hours):
 
Tides and Currents Weather Stations Pressure Air Temp Water Temp Dewpoint Dewpoint Depression Visibility Wind Speed Wind Dir Waves Ship Positions

APL Norway

Last reported at 2017-Apr-18 23:51 UTC. Time now 2017-Apr-24 17:18 UTC.
Position S 33°37' E 018°05'.

Length 295 m; draft 12.6 m.

Type: Ship (hazmat cat A). MMSI: 636013456.

Date/timePositionNaut miles runAvg speedWind from/ knotsBaromVisibWave heightAir tempDewpointWater temp
2017-Apr-18 23:51S 33°37' E 018°05'512.1
2017-Apr-18 23:27S 33°40' E 018°09'612.4
2017-Apr-18 23:00S 33°44' E 018°13'712.1
2017-Apr-18 22:25S 33°49' E 018°19'511.0
2017-Apr-18 22:00S 33°51' E 018°24'4 7.1
2017-Apr-18 21:30S 33°54' E 018°26'0 1.0
2017-Apr-18 21:00S 33°55' E 018°27'0 0.0
2017-Apr-18 20:27S 33°55' E 018°27'0 0.0
2017-Apr-18 19:57S 33°55' E 018°27'0 0.0
2017-Apr-18 19:27S 33°55' E 018°27'0 0.0
2017-Apr-18 18:57S 33°55' E 018°27'0 0.0
2017-Apr-18 18:30S 33°55' E 018°27'0 0.0
2017-Apr-18 18:00S 33°55' E 018°27'0 0.0
2017-Apr-18 17:30S 33°55' E 018°27'0 0.0
2017-Apr-18 17:00S 33°55' E 018°27'0 0.0
2017-Apr-18 16:30S 33°55' E 018°27'0 0.0
2017-Apr-18 16:00S 33°55' E 018°27'0 0.0
2017-Apr-18 15:30S 33°55' E 018°27'0 0.0
2017-Apr-18 15:00S 33°55' E 018°27'0 0.0
2017-Apr-18 14:00S 33°55' E 018°27'0 0.0
2017-Apr-18 13:30S 33°55' E 018°27'0 0.0
2017-Apr-18 13:00S 33°55' E 018°27'0 0.0
2017-Apr-18 12:30S 33°55' E 018°27'0 0.0
2017-Apr-18 12:00S 33°55' E 018°27'0 0.0
2017-Apr-18 11:30S 33°55' E 018°27'0 0.0
2017-Apr-18 10:57S 33°55' E 018°27'0 0.0
2017-Apr-18 10:30S 33°55' E 018°27'0 0.0
2017-Apr-18 10:00S 33°55' E 018°27'0 0.0
2017-Apr-18 09:30S 33°55' E 018°27'0 0.0
2017-Apr-18 09:00S 33°55' E 018°27'0 0.0
2017-Apr-18 08:30S 33°55' E 018°27'0 0.0
2017-Apr-18 08:00S 33°55' E 018°27'0 0.0
2017-Apr-18 07:30S 33°55' E 018°27'0 0.0
2017-Apr-18 07:00S 33°55' E 018°27'1 1.5
2017-Apr-18 06:30S 33°54' E 018°26'2 4.7
2017-Apr-18 06:00S 33°52' E 018°24'1 1.0
2017-Apr-18 05:30S 33°52' E 018°24'1 2.9
2017-Apr-18 05:00S 33°52' E 018°22'3 6.0
2017-Apr-18 04:29S 33°54' E 018°19'4 7.2
2017-Apr-18 03:59S 33°58' E 018°17'19 7.0
2017-Apr-18 01:11S 34°17' E 018°15'  
2017-Apr-11 15:11S 20°27' E 058°18'515.6
2017-Apr-11 14:52S 20°24' E 058°22'1115.5
2017-Apr-11 14:08S 20°18' E 058°32'1115.5
2017-Apr-11 13:28S 20°11' E 058°41'  
Track history (hours):
 
Tides and Currents Weather Stations Pressure Air Temp Water Temp Dewpoint Dewpoint Depression Visibility Wind Speed Wind Dir Waves Ship Positions

APL Norway

Last reported at 2017-Apr-18 23:51 UTC. Time now 2017-Apr-24 17:18 UTC.
Position S 33°37' E 018°05'.

Length 295 m; draft 12.6 m.

Type: Ship (hazmat cat A). MMSI: 636013456.

Date/timePositionNaut miles runAvg speedWind from/ knotsBaromVisibWave heightAir tempDewpointWater temp
2017-Apr-18 23:51S 33°37' E 018°05'512.1
2017-Apr-18 23:27S 33°40' E 018°09'612.4
2017-Apr-18 23:00S 33°44' E 018°13'712.1
2017-Apr-18 22:25S 33°49' E 018°19'511.0
2017-Apr-18 22:00S 33°51' E 018°24'4 7.1
2017-Apr-18 21:30S 33°54' E 018°26'0 1.0
2017-Apr-18 21:00S 33°55' E 018°27'0 0.0
2017-Apr-18 20:27S 33°55' E 018°27'0 0.0
2017-Apr-18 19:57S 33°55' E 018°27'0 0.0
2017-Apr-18 19:27S 33°55' E 018°27'0 0.0
2017-Apr-18 18:57S 33°55' E 018°27'0 0.0
2017-Apr-18 18:30S 33°55' E 018°27'0 0.0
2017-Apr-18 18:00S 33°55' E 018°27'0 0.0
2017-Apr-18 17:30S 33°55' E 018°27'0 0.0
2017-Apr-18 17:00S 33°55' E 018°27'0 0.0
2017-Apr-18 16:30S 33°55' E 018°27'0 0.0
2017-Apr-18 16:00S 33°55' E 018°27'0 0.0
2017-Apr-18 15:30S 33°55' E 018°27'0 0.0
2017-Apr-18 15:00S 33°55' E 018°27'0 0.0
2017-Apr-18 14:00S 33°55' E 018°27'0 0.0
2017-Apr-18 13:30S 33°55' E 018°27'0 0.0
2017-Apr-18 13:00S 33°55' E 018°27'0 0.0
2017-Apr-18 12:30S 33°55' E 018°27'0 0.0
2017-Apr-18 12:00S 33°55' E 018°27'0 0.0
2017-Apr-18 11:30S 33°55' E 018°27'0 0.0
2017-Apr-18 10:57S 33°55' E 018°27'0 0.0
2017-Apr-18 10:30S 33°55' E 018°27'0 0.0
2017-Apr-18 10:00S 33°55' E 018°27'0 0.0
2017-Apr-18 09:30S 33°55' E 018°27'0 0.0
2017-Apr-18 09:00S 33°55' E 018°27'0 0.0
2017-Apr-18 08:30S 33°55' E 018°27'0 0.0
2017-Apr-18 08:00S 33°55' E 018°27'0 0.0
2017-Apr-18 07:30S 33°55' E 018°27'0 0.0
2017-Apr-18 07:00S 33°55' E 018°27'1 1.5
2017-Apr-18 06:30S 33°54' E 018°26'2 4.7
2017-Apr-18 06:00S 33°52' E 018°24'1 1.0
2017-Apr-18 05:30S 33°52' E 018°24'1 2.9
2017-Apr-18 05:00S 33°52' E 018°22'3 6.0
2017-Apr-18 04:29S 33°54' E 018°19'4 7.2
2017-Apr-18 03:59S 33°58' E 018°17'19 7.0
2017-Apr-18 01:11S 34°17' E 018°15'  
2017-Apr-11 15:11S 20°27' E 058°18'515.6
2017-Apr-11 14:52S 20°24' E 058°22'1115.5
2017-Apr-11 14:08S 20°18' E 058°32'1115.5
2017-Apr-11 13:28S 20°11' E 058°41'  

Dump ship's entire track history